sensor_id;sensor_type;location;lat;lon;timestamp;P1;durP1;ratioP1;P2;durP2;ratioP2
48665;SDS011;34452;50.796;4.994;2023-05-10T00:00:37;12.23;;;5.97;;
48665;SDS011;34452;50.796;4.994;2023-05-10T00:03:04;13.20;;;6.07;;
48665;SDS011;34452;50.796;4.994;2023-05-10T00:05:30;10.18;;;5.65;;
48665;SDS011;34452;50.796;4.994;2023-05-10T00:10:22;12.82;;;5.80;;
48665;SDS011;34452;50.796;4.994;2023-05-10T00:12:47;11.18;;;5.60;;
48665;SDS011;34452;50.796;4.994;2023-05-10T00:15:13;9.63;;;5.45;;
48665;SDS011;34452;50.796;4.994;2023-05-10T00:17:39;14.60;;;6.05;;
48665;SDS011;34452;50.796;4.994;2023-05-10T00:20:05;12.90;;;5.78;;
48665;SDS011;34452;50.796;4.994;2023-05-10T00:24:57;16.13;;;5.88;;
48665;SDS011;34452;50.796;4.994;2023-05-10T00:29:49;14.70;;;5.35;;
48665;SDS011;34452;50.796;4.994;2023-05-10T00:32:15;14.45;;;7.20;;
48665;SDS011;34452;50.796;4.994;2023-05-10T00:34:41;12.55;;;6.47;;
48665;SDS011;34452;50.796;4.994;2023-05-10T00:37:07;18.67;;;7.53;;
48665;SDS011;34452;50.796;4.994;2023-05-10T00:39:33;15.63;;;7.15;;
48665;SDS011;34452;50.796;4.994;2023-05-10T00:41:58;13.70;;;7.30;;
48665;SDS011;34452;50.796;4.994;2023-05-10T00:46:50;13.13;;;7.55;;
48665;SDS011;34452;50.796;4.994;2023-05-10T00:49:17;15.95;;;7.10;;
48665;SDS011;34452;50.796;4.994;2023-05-10T00:51:43;15.73;;;7.15;;
48665;SDS011;34452;50.796;4.994;2023-05-10T00:54:11;15.88;;;6.78;;
48665;SDS011;34452;50.796;4.994;2023-05-10T00:56:38;18.05;;;8.25;;
48665;SDS011;34452;50.796;4.994;2023-05-10T00:59:05;16.40;;;7.68;;
48665;SDS011;34452;50.796;4.994;2023-05-10T01:01:31;17.95;;;7.47;;
48665;SDS011;34452;50.796;4.994;2023-05-10T01:03:57;13.48;;;6.57;;
48665;SDS011;34452;50.796;4.994;2023-05-10T01:08:49;15.80;;;6.90;;
48665;SDS011;34452;50.796;4.994;2023-05-10T01:11:15;12.13;;;6.38;;
48665;SDS011;34452;50.796;4.994;2023-05-10T01:13:42;15.88;;;7.07;;
48665;SDS011;34452;50.796;4.994;2023-05-10T01:16:11;18.55;;;7.22;;
48665;SDS011;34452;50.796;4.994;2023-05-10T01:18:38;17.08;;;7.03;;
48665;SDS011;34452;50.796;4.994;2023-05-10T01:21:12;19.33;;;7.03;;
48665;SDS011;34452;50.796;4.994;2023-05-10T01:27:03;13.27;;;7.22;;
48665;SDS011;34452;50.796;4.994;2023-05-10T01:32:43;14.55;;;7.10;;
48665;SDS011;34452;50.796;4.994;2023-05-10T01:35:29;16.20;;;7.60;;
48665;SDS011;34452;50.796;4.994;2023-05-10T01:43:54;20.98;;;7.53;;
48665;SDS011;34452;50.796;4.994;2023-05-10T01:46:27;13.52;;;7.80;;
48665;SDS011;34452;50.796;4.994;2023-05-10T01:49:15;14.75;;;6.93;;
48665;SDS011;34452;50.796;4.994;2023-05-10T01:52:00;20.33;;;7.72;;
48665;SDS011;34452;50.796;4.994;2023-05-10T01:54:32;20.38;;;8.52;;
48665;SDS011;34452;50.796;4.994;2023-05-10T01:57:00;14.52;;;7.53;;
48665;SDS011;34452;50.796;4.994;2023-05-10T01:59:30;14.93;;;7.93;;
48665;SDS011;34452;50.796;4.994;2023-05-10T02:02:20;16.88;;;7.93;;
48665;SDS011;34452;50.796;4.994;2023-05-10T02:04:47;20.27;;;7.53;;
48665;SDS011;34452;50.796;4.994;2023-05-10T02:07:15;18.63;;;8.48;;
48665;SDS011;34452;50.796;4.994;2023-05-10T02:09:43;23.10;;;8.85;;
48665;SDS011;34452;50.796;4.994;2023-05-10T02:12:12;17.35;;;8.75;;
48665;SDS011;34452;50.796;4.994;2023-05-10T02:14:40;21.05;;;9.95;;
48665;SDS011;34452;50.796;4.994;2023-05-10T02:17:07;19.35;;;8.75;;
48665;SDS011;34452;50.796;4.994;2023-05-10T02:19:34;26.73;;;9.55;;
48665;SDS011;34452;50.796;4.994;2023-05-10T02:22:02;19.20;;;9.68;;
48665;SDS011;34452;50.796;4.994;2023-05-10T02:24:29;27.52;;;9.65;;
48665;SDS011;34452;50.796;4.994;2023-05-10T02:26:57;26.95;;;10.43;;
48665;SDS011;34452;50.796;4.994;2023-05-10T02:29:24;15.73;;;9.35;;
48665;SDS011;34452;50.796;4.994;2023-05-10T02:31:51;19.48;;;8.90;;
48665;SDS011;34452;50.796;4.994;2023-05-10T02:34:19;20.85;;;10.02;;
48665;SDS011;34452;50.796;4.994;2023-05-10T02:36:47;22.25;;;9.70;;
48665;SDS011;34452;50.796;4.994;2023-05-10T02:39:15;25.45;;;10.45;;
48665;SDS011;34452;50.796;4.994;2023-05-10T02:41:42;21.40;;;10.30;;
48665;SDS011;34452;50.796;4.994;2023-05-10T02:44:10;20.75;;;11.25;;
48665;SDS011;34452;50.796;4.994;2023-05-10T02:46:36;20.17;;;10.63;;
48665;SDS011;34452;50.796;4.994;2023-05-10T02:49:02;23.25;;;12.15;;
48665;SDS011;34452;50.796;4.994;2023-05-10T02:51:30;22.02;;;11.13;;
48665;SDS011;34452;50.796;4.994;2023-05-10T02:53:57;20.90;;;11.65;;
48665;SDS011;34452;50.796;4.994;2023-05-10T02:56:28;21.85;;;11.02;;
48665;SDS011;34452;50.796;4.994;2023-05-10T02:58:58;24.75;;;12.57;;
48665;SDS011;34452;50.796;4.994;2023-05-10T03:01:23;23.77;;;12.07;;
48665;SDS011;34452;50.796;4.994;2023-05-10T03:03:49;28.38;;;11.82;;
48665;SDS011;34452;50.796;4.994;2023-05-10T03:06:15;22.52;;;11.50;;
48665;SDS011;34452;50.796;4.994;2023-05-10T03:08:41;22.02;;;11.13;;
48665;SDS011;34452;50.796;4.994;2023-05-10T03:17:00;21.67;;;10.65;;
48665;SDS011;34452;50.796;4.994;2023-05-10T03:19:44;24.85;;;10.88;;
48665;SDS011;34452;50.796;4.994;2023-05-10T03:22:23;19.77;;;10.68;;
48665;SDS011;34452;50.796;4.994;2023-05-10T03:24:53;18.20;;;10.55;;
48665;SDS011;34452;50.796;4.994;2023-05-10T03:27:22;28.67;;;10.00;;
48665;SDS011;34452;50.796;4.994;2023-05-10T03:29:48;18.15;;;9.52;;
48665;SDS011;34452;50.796;4.994;2023-05-10T03:32:16;18.58;;;9.95;;
48665;SDS011;34452;50.796;4.994;2023-05-10T03:34:42;14.93;;;9.60;;
48665;SDS011;34452;50.796;4.994;2023-05-10T03:37:09;17.65;;;9.93;;
48665;SDS011;34452;50.796;4.994;2023-05-10T03:39:35;16.13;;;9.63;;
48665;SDS011;34452;50.796;4.994;2023-05-10T03:42:01;15.52;;;9.27;;
48665;SDS011;34452;50.796;4.994;2023-05-10T03:44:26;18.02;;;9.50;;
48665;SDS011;34452;50.796;4.994;2023-05-10T03:46:52;18.13;;;9.73;;
48665;SDS011;34452;50.796;4.994;2023-05-10T03:49:18;17.90;;;9.68;;
48665;SDS011;34452;50.796;4.994;2023-05-10T03:51:43;21.70;;;10.00;;
48665;SDS011;34452;50.796;4.994;2023-05-10T03:54:09;17.70;;;9.98;;
48665;SDS011;34452;50.796;4.994;2023-05-10T03:56:35;14.25;;;9.55;;
48665;SDS011;34452;50.796;4.994;2023-05-10T03:59:01;22.40;;;10.25;;
48665;SDS011;34452;50.796;4.994;2023-05-10T04:01:32;14.50;;;9.10;;
48665;SDS011;34452;50.796;4.994;2023-05-10T04:03:58;19.20;;;10.25;;
48665;SDS011;34452;50.796;4.994;2023-05-10T04:06:24;20.65;;;10.57;;
48665;SDS011;34452;50.796;4.994;2023-05-10T04:08:50;25.33;;;12.00;;
48665;SDS011;34452;50.796;4.994;2023-05-10T04:11:15;22.20;;;12.68;;
48665;SDS011;34452;50.796;4.994;2023-05-10T04:13:41;27.25;;;13.00;;
48665;SDS011;34452;50.796;4.994;2023-05-10T04:16:08;23.33;;;12.82;;
48665;SDS011;34452;50.796;4.994;2023-05-10T04:18:34;30.80;;;12.85;;
48665;SDS011;34452;50.796;4.994;2023-05-10T04:21:00;24.08;;;13.05;;
48665;SDS011;34452;50.796;4.994;2023-05-10T04:23:27;23.02;;;12.93;;
48665;SDS011;34452;50.796;4.994;2023-05-10T04:25:58;28.83;;;14.18;;
48665;SDS011;34452;50.796;4.994;2023-05-10T04:28:25;22.23;;;13.20;;
48665;SDS011;34452;50.796;4.994;2023-05-10T04:30:51;27.75;;;13.02;;
48665;SDS011;34452;50.796;4.994;2023-05-10T04:33:16;21.07;;;11.73;;
48665;SDS011;34452;50.796;4.994;2023-05-10T04:35:42;22.57;;;12.07;;
48665;SDS011;34452;50.796;4.994;2023-05-10T04:38:09;23.60;;;11.73;;
48665;SDS011;34452;50.796;4.994;2023-05-10T04:40:35;24.35;;;12.38;;
48665;SDS011;34452;50.796;4.994;2023-05-10T04:43:01;23.17;;;11.57;;
48665;SDS011;34452;50.796;4.994;2023-05-10T04:45:26;23.57;;;11.73;;
48665;SDS011;34452;50.796;4.994;2023-05-10T04:47:52;20.95;;;11.18;;
48665;SDS011;34452;50.796;4.994;2023-05-10T04:50:18;24.00;;;11.63;;
48665;SDS011;34452;50.796;4.994;2023-05-10T04:52:44;25.80;;;12.45;;
48665;SDS011;34452;50.796;4.994;2023-05-10T04:55:09;20.17;;;10.77;;
48665;SDS011;34452;50.796;4.994;2023-05-10T04:57:35;24.50;;;11.95;;
48665;SDS011;34452;50.796;4.994;2023-05-10T05:00:01;20.48;;;12.18;;
48665;SDS011;34452;50.796;4.994;2023-05-10T05:02:27;25.50;;;11.38;;
48665;SDS011;34452;50.796;4.994;2023-05-10T05:04:53;20.08;;;10.85;;
48665;SDS011;34452;50.796;4.994;2023-05-10T05:07:22;20.73;;;11.23;;
48665;SDS011;34452;50.796;4.994;2023-05-10T05:09:48;21.70;;;11.02;;
48665;SDS011;34452;50.796;4.994;2023-05-10T05:12:14;19.43;;;9.80;;
48665;SDS011;34452;50.796;4.994;2023-05-10T05:14:40;15.93;;;9.63;;
48665;SDS011;34452;50.796;4.994;2023-05-10T05:17:06;20.23;;;11.05;;
48665;SDS011;34452;50.796;4.994;2023-05-10T05:19:32;20.83;;;10.20;;
48665;SDS011;34452;50.796;4.994;2023-05-10T05:21:58;21.42;;;10.65;;
48665;SDS011;34452;50.796;4.994;2023-05-10T05:24:24;23.23;;;11.55;;
48665;SDS011;34452;50.796;4.994;2023-05-10T05:26:49;19.50;;;9.88;;
48665;SDS011;34452;50.796;4.994;2023-05-10T05:29:15;21.60;;;11.03;;
48665;SDS011;34452;50.796;4.994;2023-05-10T05:31:41;24.87;;;12.77;;
48665;SDS011;34452;50.796;4.994;2023-05-10T05:34:06;18.53;;;10.70;;
48665;SDS011;34452;50.796;4.994;2023-05-10T05:36:32;21.43;;;11.70;;
48665;SDS011;34452;50.796;4.994;2023-05-10T05:39:03;18.55;;;11.38;;
48665;SDS011;34452;50.796;4.994;2023-05-10T05:41:29;25.35;;;11.85;;
48665;SDS011;34452;50.796;4.994;2023-05-10T05:43:54;20.48;;;11.88;;
48665;SDS011;34452;50.796;4.994;2023-05-10T05:46:20;19.83;;;12.13;;
48665;SDS011;34452;50.796;4.994;2023-05-10T05:48:46;25.40;;;13.55;;
48665;SDS011;34452;50.796;4.994;2023-05-10T05:51:11;20.30;;;12.00;;
48665;SDS011;34452;50.796;4.994;2023-05-10T05:53:37;21.13;;;12.05;;
48665;SDS011;34452;50.796;4.994;2023-05-10T05:56:03;23.77;;;14.13;;
48665;SDS011;34452;50.796;4.994;2023-05-10T05:58:29;25.80;;;14.15;;
48665;SDS011;34452;50.796;4.994;2023-05-10T06:00:55;27.55;;;14.52;;
48665;SDS011;34452;50.796;4.994;2023-05-10T06:03:20;30.00;;;15.68;;
48665;SDS011;34452;50.796;4.994;2023-05-10T06:05:46;24.42;;;13.68;;
48665;SDS011;34452;50.796;4.994;2023-05-10T06:08:12;24.83;;;14.10;;
48665;SDS011;34452;50.796;4.994;2023-05-10T06:10:38;29.20;;;16.17;;
48665;SDS011;34452;50.796;4.994;2023-05-10T06:13:04;31.10;;;14.68;;
48665;SDS011;34452;50.796;4.994;2023-05-10T06:15:29;24.13;;;14.13;;
48665;SDS011;34452;50.796;4.994;2023-05-10T06:17:55;28.52;;;14.57;;
48665;SDS011;34452;50.796;4.994;2023-05-10T06:20:21;30.40;;;14.73;;
48665;SDS011;34452;50.796;4.994;2023-05-10T06:22:47;28.60;;;16.08;;
48665;SDS011;34452;50.796;4.994;2023-05-10T06:25:12;31.83;;;15.05;;
48665;SDS011;34452;50.796;4.994;2023-05-10T06:27:39;25.42;;;15.13;;
48665;SDS011;34452;50.796;4.994;2023-05-10T06:30:05;27.17;;;14.07;;
48665;SDS011;34452;50.796;4.994;2023-05-10T06:32:33;25.70;;;14.27;;
48665;SDS011;34452;50.796;4.994;2023-05-10T06:34:58;17.23;;;9.23;;
48665;SDS011;34452;50.796;4.994;2023-05-10T06:37:24;11.07;;;6.50;;
48665;SDS011;34452;50.796;4.994;2023-05-10T06:39:50;8.38;;;5.72;;
48665;SDS011;34452;50.796;4.994;2023-05-10T06:42:16;9.48;;;4.15;;
48665;SDS011;34452;50.796;4.994;2023-05-10T06:44:41;4.68;;;3.30;;
48665;SDS011;34452;50.796;4.994;2023-05-10T06:47:08;3.65;;;2.53;;
48665;SDS011;34452;50.796;4.994;2023-05-10T06:49:34;3.22;;;2.30;;
48665;SDS011;34452;50.796;4.994;2023-05-10T06:52:00;3.35;;;1.98;;
48665;SDS011;34452;50.796;4.994;2023-05-10T06:54:26;3.55;;;1.65;;
48665;SDS011;34452;50.796;4.994;2023-05-10T06:56:51;4.20;;;1.50;;
48665;SDS011;34452;50.796;4.994;2023-05-10T06:59:18;2.58;;;1.50;;
48665;SDS011;34452;50.796;4.994;2023-05-10T07:01:44;3.80;;;1.40;;
48665;SDS011;34452;50.796;4.994;2023-05-10T07:04:10;1.50;;;1.00;;
48665;SDS011;34452;50.796;4.994;2023-05-10T07:06:35;1.13;;;0.85;;
48665;SDS011;34452;50.796;4.994;2023-05-10T07:09:01;0.90;;;0.80;;
48665;SDS011;34452;50.796;4.994;2023-05-10T07:11:27;2.33;;;0.90;;
48665;SDS011;34452;50.796;4.994;2023-05-10T07:13:53;1.77;;;0.70;;
48665;SDS011;34452;50.796;4.994;2023-05-10T07:16:18;2.58;;;0.70;;
48665;SDS011;34452;50.796;4.994;2023-05-10T07:18:44;1.85;;;0.70;;
48665;SDS011;34452;50.796;4.994;2023-05-10T07:21:10;1.10;;;0.68;;
48665;SDS011;34452;50.796;4.994;2023-05-10T07:23:36;2.20;;;0.60;;
48665;SDS011;34452;50.796;4.994;2023-05-10T07:26:01;2.70;;;0.93;;
48665;SDS011;34452;50.796;4.994;2023-05-10T07:28:27;1.77;;;0.80;;
48665;SDS011;34452;50.796;4.994;2023-05-10T07:30:53;3.40;;;0.82;;
48665;SDS011;34452;50.796;4.994;2023-05-10T07:33:19;1.27;;;0.90;;
48665;SDS011;34452;50.796;4.994;2023-05-10T07:35:44;4.70;;;1.08;;
48665;SDS011;34452;50.796;4.994;2023-05-10T07:38:10;2.42;;;0.88;;
48665;SDS011;34452;50.796;4.994;2023-05-10T07:40:36;1.33;;;0.70;;
48665;SDS011;34452;50.796;4.994;2023-05-10T07:43:02;3.30;;;0.80;;
48665;SDS011;34452;50.796;4.994;2023-05-10T07:45:28;2.22;;;1.00;;
48665;SDS011;34452;50.796;4.994;2023-05-10T07:47:54;2.95;;;1.10;;
48665;SDS011;34452;50.796;4.994;2023-05-10T07:50:19;4.93;;;2.25;;
48665;SDS011;34452;50.796;4.994;2023-05-10T07:55:12;1.80;;;1.10;;
48665;SDS011;34452;50.796;4.994;2023-05-10T07:57:38;3.80;;;1.48;;
48665;SDS011;34452;50.796;4.994;2023-05-10T08:00:04;6.40;;;1.65;;
48665;SDS011;34452;50.796;4.994;2023-05-10T08:02:30;4.10;;;1.80;;
48665;SDS011;34452;50.796;4.994;2023-05-10T08:04:56;3.70;;;1.80;;
48665;SDS011;34452;50.796;4.994;2023-05-10T08:07:22;5.18;;;2.13;;
48665;SDS011;34452;50.796;4.994;2023-05-10T08:09:49;3.15;;;2.08;;
48665;SDS011;34452;50.796;4.994;2023-05-10T08:12:15;5.07;;;2.42;;
48665;SDS011;34452;50.796;4.994;2023-05-10T08:14:41;6.05;;;2.50;;
48665;SDS011;34452;50.796;4.994;2023-05-10T08:17:07;5.15;;;2.63;;
48665;SDS011;34452;50.796;4.994;2023-05-10T08:19:33;4.00;;;2.67;;
48665;SDS011;34452;50.796;4.994;2023-05-10T08:21:59;4.47;;;2.30;;
48665;SDS011;34452;50.796;4.994;2023-05-10T08:24:25;6.68;;;3.00;;
48665;SDS011;34452;50.796;4.994;2023-05-10T08:26:51;4.82;;;2.88;;
48665;SDS011;34452;50.796;4.994;2023-05-10T08:29:17;4.88;;;2.70;;
48665;SDS011;34452;50.796;4.994;2023-05-10T08:31:43;5.60;;;3.00;;
48665;SDS011;34452;50.796;4.994;2023-05-10T08:34:08;5.45;;;2.63;;
48665;SDS011;34452;50.796;4.994;2023-05-10T08:36:34;4.90;;;2.90;;
48665;SDS011;34452;50.796;4.994;2023-05-10T08:39:01;3.65;;;2.63;;
48665;SDS011;34452;50.796;4.994;2023-05-10T08:41:27;5.25;;;2.83;;
48665;SDS011;34452;50.796;4.994;2023-05-10T08:43:53;11.23;;;4.22;;
48665;SDS011;34452;50.796;4.994;2023-05-10T08:46:21;5.50;;;2.97;;
48665;SDS011;34452;50.796;4.994;2023-05-10T08:48:49;6.13;;;2.88;;
48665;SDS011;34452;50.796;4.994;2023-05-10T08:51:18;7.88;;;3.30;;
48665;SDS011;34452;50.796;4.994;2023-05-10T08:53:46;5.28;;;3.10;;
48665;SDS011;34452;50.796;4.994;2023-05-10T08:56:12;5.43;;;3.00;;
48665;SDS011;34452;50.796;4.994;2023-05-10T08:58:40;5.22;;;3.33;;
48665;SDS011;34452;50.796;4.994;2023-05-10T09:01:06;4.28;;;2.88;;
48665;SDS011;34452;50.796;4.994;2023-05-10T09:03:33;6.28;;;3.70;;
48665;SDS011;34452;50.796;4.994;2023-05-10T09:08:25;5.03;;;2.92;;
48665;SDS011;34452;50.796;4.994;2023-05-10T09:10:52;6.28;;;3.30;;
48665;SDS011;34452;50.796;4.994;2023-05-10T09:13:19;6.45;;;3.50;;
48665;SDS011;34452;50.796;4.994;2023-05-10T09:15:45;6.55;;;3.88;;
48665;SDS011;34452;50.796;4.994;2023-05-10T09:18:12;5.70;;;3.78;;
48665;SDS011;34452;50.796;4.994;2023-05-10T09:20:38;5.32;;;3.55;;
48665;SDS011;34452;50.796;4.994;2023-05-10T09:23:03;4.45;;;3.28;;
48665;SDS011;34452;50.796;4.994;2023-05-10T09:25:30;5.10;;;3.22;;
48665;SDS011;34452;50.796;4.994;2023-05-10T09:27:58;3.65;;;2.97;;
48665;SDS011;34452;50.796;4.994;2023-05-10T09:30:25;5.40;;;3.15;;
48665;SDS011;34452;50.796;4.994;2023-05-10T09:32:52;4.53;;;3.10;;
48665;SDS011;34452;50.796;4.994;2023-05-10T09:35:20;3.47;;;2.95;;
48665;SDS011;34452;50.796;4.994;2023-05-10T09:37:49;4.60;;;2.60;;
48665;SDS011;34452;50.796;4.994;2023-05-10T09:40:16;3.42;;;2.40;;
48665;SDS011;34452;50.796;4.994;2023-05-10T09:42:53;4.10;;;2.60;;
48665;SDS011;34452;50.796;4.994;2023-05-10T09:45:37;7.65;;;3.53;;
48665;SDS011;34452;50.796;4.994;2023-05-10T09:48:03;4.53;;;2.28;;
48665;SDS011;34452;50.796;4.994;2023-05-10T09:50:29;3.92;;;2.10;;
48665;SDS011;34452;50.796;4.994;2023-05-10T09:55:42;4.90;;;2.38;;
48665;SDS011;34452;50.796;4.994;2023-05-10T09:58:10;3.00;;;2.00;;
48665;SDS011;34452;50.796;4.994;2023-05-10T10:00:36;2.85;;;1.52;;
48665;SDS011;34452;50.796;4.994;2023-05-10T10:03:04;2.40;;;1.38;;
48665;SDS011;34452;50.796;4.994;2023-05-10T10:05:31;1.50;;;1.35;;
48665;SDS011;34452;50.796;4.994;2023-05-10T10:07:58;3.28;;;1.88;;
48665;SDS011;34452;50.796;4.994;2023-05-10T10:10:25;2.88;;;1.55;;
48665;SDS011;34452;50.796;4.994;2023-05-10T10:12:52;1.85;;;1.58;;
48665;SDS011;34452;50.796;4.994;2023-05-10T10:15:20;4.70;;;2.45;;
48665;SDS011;34452;50.796;4.994;2023-05-10T10:17:46;4.15;;;2.20;;
48665;SDS011;34452;50.796;4.994;2023-05-10T10:20:14;3.75;;;2.70;;
48665;SDS011;34452;50.796;4.994;2023-05-10T10:25:06;3.13;;;1.80;;
48665;SDS011;34452;50.796;4.994;2023-05-10T10:27:36;2.35;;;1.27;;
48665;SDS011;34452;50.796;4.994;2023-05-10T10:36:49;1.70;;;0.98;;
48665;SDS011;34452;50.796;4.994;2023-05-10T10:39:14;2.60;;;1.00;;
48665;SDS011;34452;50.796;4.994;2023-05-10T10:41:52;2.65;;;1.38;;
48665;SDS011;34452;50.796;4.994;2023-05-10T10:47:04;2.72;;;1.58;;
48665;SDS011;34452;50.796;4.994;2023-05-10T10:49:36;1.73;;;1.25;;
48665;SDS011;34452;50.796;4.994;2023-05-10T10:55:20;1.80;;;1.10;;
48665;SDS011;34452;50.796;4.994;2023-05-10T10:57:50;1.80;;;1.30;;
48665;SDS011;34452;50.796;4.994;2023-05-10T11:02:43;1.42;;;0.98;;
48665;SDS011;34452;50.796;4.994;2023-05-10T11:08:00;0.80;;;0.80;;
48665;SDS011;34452;50.796;4.994;2023-05-10T11:13:45;1.02;;;0.80;;
48665;SDS011;34452;50.796;4.994;2023-05-10T11:21:45;0.70;;;0.60;;
48665;SDS011;34452;50.796;4.994;2023-05-10T11:24:29;1.48;;;0.70;;
48665;SDS011;34452;50.796;4.994;2023-05-10T11:26:55;1.10;;;0.70;;
48665;SDS011;34452;50.796;4.994;2023-05-10T11:29:21;1.15;;;0.50;;
48665;SDS011;34452;50.796;4.994;2023-05-10T11:31:48;0.60;;;0.60;;
48665;SDS011;34452;50.796;4.994;2023-05-10T11:36:59;0.73;;;0.68;;
48665;SDS011;34452;50.796;4.994;2023-05-10T11:39:25;1.55;;;0.70;;
48665;SDS011;34452;50.796;4.994;2023-05-10T11:41:53;2.05;;;1.15;;
48665;SDS011;34452;50.796;4.994;2023-05-10T11:44:18;1.75;;;1.20;;
48665;SDS011;34452;50.796;4.994;2023-05-10T11:46:44;1.33;;;1.10;;
48665;SDS011;34452;50.796;4.994;2023-05-10T11:49:10;1.83;;;1.45;;
48665;SDS011;34452;50.796;4.994;2023-05-10T11:54:05;1.73;;;1.60;;
48665;SDS011;34452;50.796;4.994;2023-05-10T11:56:34;1.70;;;1.60;;
48665;SDS011;34452;50.796;4.994;2023-05-10T11:59:00;1.50;;;1.35;;
48665;SDS011;34452;50.796;4.994;2023-05-10T12:01:27;2.10;;;1.73;;
48665;SDS011;34452;50.796;4.994;2023-05-10T12:06:20;1.92;;;1.60;;
48665;SDS011;34452;50.796;4.994;2023-05-10T12:08:46;2.13;;;1.70;;
48665;SDS011;34452;50.796;4.994;2023-05-10T12:11:14;2.00;;;1.40;;
48665;SDS011;34452;50.796;4.994;2023-05-10T12:13:41;2.97;;;1.50;;
48665;SDS011;34452;50.796;4.994;2023-05-10T12:16:21;1.98;;;1.20;;
48665;SDS011;34452;50.796;4.994;2023-05-10T12:18:48;1.60;;;1.05;;
48665;SDS011;34452;50.796;4.994;2023-05-10T12:21:16;1.67;;;1.42;;
48665;SDS011;34452;50.796;4.994;2023-05-10T12:23:43;1.50;;;1.40;;
48665;SDS011;34452;50.796;4.994;2023-05-10T12:26:11;2.13;;;1.58;;
48665;SDS011;34452;50.796;4.994;2023-05-10T12:28:37;3.45;;;1.90;;
48665;SDS011;34452;50.796;4.994;2023-05-10T12:31:05;2.13;;;1.92;;
48665;SDS011;34452;50.796;4.994;2023-05-10T12:36:16;2.70;;;2.22;;
48665;SDS011;34452;50.796;4.994;2023-05-10T12:38:48;2.10;;;1.88;;
48665;SDS011;34452;50.796;4.994;2023-05-10T12:41:15;2.50;;;2.17;;
48665;SDS011;34452;50.796;4.994;2023-05-10T12:43:41;2.70;;;2.28;;
48665;SDS011;34452;50.796;4.994;2023-05-10T12:46:18;2.83;;;2.05;;
48665;SDS011;34452;50.796;4.994;2023-05-10T12:49:03;3.80;;;2.67;;
48665;SDS011;34452;50.796;4.994;2023-05-10T12:51:29;6.30;;;2.72;;
48665;SDS011;34452;50.796;4.994;2023-05-10T12:53:56;3.35;;;2.28;;
48665;SDS011;34452;50.796;4.994;2023-05-10T12:56:21;6.65;;;2.10;;
48665;SDS011;34452;50.796;4.994;2023-05-10T12:58:47;2.85;;;2.10;;
48665;SDS011;34452;50.796;4.994;2023-05-10T13:01:13;2.70;;;1.92;;
48665;SDS011;34452;50.796;4.994;2023-05-10T13:06:05;2.55;;;1.75;;
48665;SDS011;34452;50.796;4.994;2023-05-10T13:08:31;4.00;;;2.63;;
48665;SDS011;34452;50.796;4.994;2023-05-10T13:10:59;4.00;;;2.83;;
48665;SDS011;34452;50.796;4.994;2023-05-10T13:13:25;2.95;;;2.17;;
48665;SDS011;34452;50.796;4.994;2023-05-10T13:15:51;2.95;;;2.30;;
48665;SDS011;34452;50.796;4.994;2023-05-10T13:18:17;3.45;;;2.13;;
48665;SDS011;34452;50.796;4.994;2023-05-10T13:20:42;2.95;;;2.17;;
48665;SDS011;34452;50.796;4.994;2023-05-10T13:25:35;2.88;;;1.70;;
48665;SDS011;34452;50.796;4.994;2023-05-10T13:28:01;5.65;;;2.58;;
48665;SDS011;34452;50.796;4.994;2023-05-10T13:30:27;3.30;;;1.88;;
48665;SDS011;34452;50.796;4.994;2023-05-10T13:35:19;5.43;;;1.85;;
48665;SDS011;34452;50.796;4.994;2023-05-10T13:37:45;2.13;;;1.63;;
48665;SDS011;34452;50.796;4.994;2023-05-10T13:40:11;3.42;;;1.88;;
48665;SDS011;34452;50.796;4.994;2023-05-10T13:42:37;2.58;;;1.48;;
48665;SDS011;34452;50.796;4.994;2023-05-10T13:45:03;2.38;;;1.55;;
48665;SDS011;34452;50.796;4.994;2023-05-10T13:47:29;3.10;;;1.70;;
48665;SDS011;34452;50.796;4.994;2023-05-10T13:49:55;2.30;;;1.33;;
48665;SDS011;34452;50.796;4.994;2023-05-10T13:52:21;2.15;;;1.40;;
48665;SDS011;34452;50.796;4.994;2023-05-10T13:54:46;2.60;;;1.50;;
48665;SDS011;34452;50.796;4.994;2023-05-10T13:57:12;1.90;;;1.40;;
48665;SDS011;34452;50.796;4.994;2023-05-10T13:59:39;3.08;;;1.65;;
48665;SDS011;34452;50.796;4.994;2023-05-10T14:02:05;1.58;;;1.00;;
48665;SDS011;34452;50.796;4.994;2023-05-10T14:04:32;2.60;;;1.58;;
48665;SDS011;34452;50.796;4.994;2023-05-10T14:07:00;2.15;;;1.45;;
48665;SDS011;34452;50.796;4.994;2023-05-10T14:11:52;3.60;;;2.03;;
48665;SDS011;34452;50.796;4.994;2023-05-10T14:14:18;4.57;;;2.08;;
48665;SDS011;34452;50.796;4.994;2023-05-10T14:16:44;3.30;;;1.80;;
48665;SDS011;34452;50.796;4.994;2023-05-10T14:21:36;2.03;;;1.65;;
48665;SDS011;34452;50.796;4.994;2023-05-10T14:24:02;2.40;;;1.70;;
48665;SDS011;34452;50.796;4.994;2023-05-10T14:26:28;2.53;;;1.33;;
48665;SDS011;34452;50.796;4.994;2023-05-10T14:28:53;2.83;;;1.50;;
48665;SDS011;34452;50.796;4.994;2023-05-10T14:31:19;2.75;;;1.55;;
48665;SDS011;34452;50.796;4.994;2023-05-10T14:33:46;6.95;;;1.75;;
48665;SDS011;34452;50.796;4.994;2023-05-10T14:36:12;3.28;;;2.15;;
48665;SDS011;34452;50.796;4.994;2023-05-10T14:38:38;3.15;;;2.40;;
48665;SDS011;34452;50.796;4.994;2023-05-10T14:41:04;3.65;;;2.10;;
48665;SDS011;34452;50.796;4.994;2023-05-10T14:43:30;3.30;;;2.40;;
48665;SDS011;34452;50.796;4.994;2023-05-10T14:45:56;3.47;;;2.15;;
48665;SDS011;34452;50.796;4.994;2023-05-10T14:48:22;3.65;;;2.08;;
48665;SDS011;34452;50.796;4.994;2023-05-10T14:50:47;3.10;;;1.77;;
48665;SDS011;34452;50.796;4.994;2023-05-10T14:53:14;1.83;;;1.60;;
48665;SDS011;34452;50.796;4.994;2023-05-10T14:55:40;2.38;;;1.67;;
48665;SDS011;34452;50.796;4.994;2023-05-10T14:58:06;2.58;;;1.48;;
48665;SDS011;34452;50.796;4.994;2023-05-10T15:00:32;2.15;;;1.20;;
48665;SDS011;34452;50.796;4.994;2023-05-10T15:02:58;2.63;;;1.45;;
48665;SDS011;34452;50.796;4.994;2023-05-10T15:05:23;3.03;;;1.92;;
48665;SDS011;34452;50.796;4.994;2023-05-10T15:07:49;4.25;;;2.28;;
48665;SDS011;34452;50.796;4.994;2023-05-10T15:10:16;4.32;;;2.50;;
48665;SDS011;34452;50.796;4.994;2023-05-10T15:12:42;4.47;;;2.33;;
48665;SDS011;34452;50.796;4.994;2023-05-10T15:15:08;6.00;;;3.22;;
48665;SDS011;34452;50.796;4.994;2023-05-10T15:17:34;7.68;;;3.30;;
48665;SDS011;34452;50.796;4.994;2023-05-10T15:20:00;5.13;;;3.13;;
48665;SDS011;34452;50.796;4.994;2023-05-10T15:22:28;4.80;;;2.83;;
48665;SDS011;34452;50.796;4.994;2023-05-10T15:24:55;5.57;;;2.88;;
48665;SDS011;34452;50.796;4.994;2023-05-10T15:27:22;6.60;;;3.25;;
48665;SDS011;34452;50.796;4.994;2023-05-10T15:29:48;5.50;;;2.97;;
48665;SDS011;34452;50.796;4.994;2023-05-10T15:32:15;7.38;;;4.00;;
48665;SDS011;34452;50.796;4.994;2023-05-10T15:34:41;5.65;;;2.97;;
48665;SDS011;34452;50.796;4.994;2023-05-10T15:37:06;7.55;;;3.30;;
48665;SDS011;34452;50.796;4.994;2023-05-10T15:39:32;8.13;;;3.80;;
48665;SDS011;34452;50.796;4.994;2023-05-10T15:41:58;6.28;;;3.42;;
48665;SDS011;34452;50.796;4.994;2023-05-10T15:44:23;7.57;;;3.78;;
48665;SDS011;34452;50.796;4.994;2023-05-10T15:46:49;7.47;;;3.42;;
48665;SDS011;34452;50.796;4.994;2023-05-10T15:49:15;4.93;;;2.83;;
48665;SDS011;34452;50.796;4.994;2023-05-10T15:51:42;5.25;;;2.53;;
48665;SDS011;34452;50.796;4.994;2023-05-10T15:54:08;3.92;;;2.47;;
48665;SDS011;34452;50.796;4.994;2023-05-10T15:56:34;4.53;;;2.58;;
48665;SDS011;34452;50.796;4.994;2023-05-10T15:59:00;5.07;;;3.00;;
48665;SDS011;34452;50.796;4.994;2023-05-10T16:01:26;6.40;;;3.45;;
48665;SDS011;34452;50.796;4.994;2023-05-10T16:03:52;10.50;;;3.40;;
48665;SDS011;34452;50.796;4.994;2023-05-10T16:06:18;7.65;;;3.35;;